createdAt,value
2017-12-21T00:00:43.426Z,22.1
2017-12-21T00:01:51.536Z,22.0
2017-12-21T00:02:59.601Z,22.0
2017-12-21T00:04:07.736Z,22.1
2017-12-21T00:05:15.773Z,22.1
2017-12-21T00:06:23.860Z,22.1
2017-12-21T00:07:31.946Z,22.1
2017-12-21T00:08:40.033Z,22.1
2017-12-21T00:09:48.118Z,22.1
2017-12-21T00:10:56.205Z,22.1
2017-12-21T00:12:04.290Z,22.1
2017-12-21T00:13:12.401Z,22.1
2017-12-21T00:14:20.463Z,22.1
2017-12-21T00:15:28.549Z,22.1
2017-12-21T00:16:36.636Z,22.1
2017-12-21T00:17:44.716Z,22.2
2017-12-21T00:18:52.801Z,22.1
2017-12-21T00:20:02.479Z,22.1
2017-12-21T00:21:08.974Z,22.1
2017-12-21T00:22:17.061Z,22.1
2017-12-21T00:23:25.150Z,22.1
2017-12-21T00:24:33.235Z,22.1
2017-12-21T00:25:41.321Z,22.1
2017-12-21T00:26:49.670Z,22.1
2017-12-21T00:27:57.754Z,22.0
2017-12-21T00:29:05.840Z,22.1
2017-12-21T00:30:13.927Z,22.1
2017-12-21T00:31:22.014Z,22.1
2017-12-21T00:32:30.100Z,22.1
2017-12-21T00:33:38.191Z,22.0
2017-12-21T00:34:46.311Z,22.1
2017-12-21T00:35:54.396Z,22.0
2017-12-21T00:37:02.481Z,22.0
2017-12-21T00:38:10.566Z,22.1
2017-12-21T00:39:18.652Z,22.0
2017-12-21T00:40:26.740Z,22.1
2017-12-21T00:41:34.824Z,22.0
2017-12-21T00:42:42.910Z,22.0
2017-12-21T00:43:50.997Z,22.1
2017-12-21T00:44:59.086Z,22.0
2017-12-21T00:46:07.176Z,22.0
2017-12-21T00:47:15.261Z,22.0
2017-12-21T00:48:23.353Z,22.0
2017-12-21T00:49:31.439Z,22.0
2017-12-21T00:50:39.588Z,21.9
2017-12-21T00:51:47.625Z,21.9
2017-12-21T00:52:55.707Z,21.9
2017-12-21T00:54:03.815Z,21.9
2017-12-21T00:55:11.877Z,22.0
2017-12-21T00:56:19.965Z,22.0
2017-12-21T00:57:28.052Z,21.9
2017-12-21T00:58:36.139Z,21.9
2017-12-21T00:59:44.223Z,21.9
2017-12-21T01:00:52.307Z,21.9
2017-12-21T01:02:00.398Z,21.9
2017-12-21T01:03:08.479Z,21.9
2017-12-21T01:04:16.566Z,21.9
2017-12-21T01:05:24.651Z,21.9
2017-12-21T01:06:32.737Z,21.8
2017-12-21T01:07:40.834Z,21.8
2017-12-21T01:08:48.921Z,21.8
2017-12-21T01:09:57.005Z,21.9
2017-12-21T01:11:05.088Z,21.8
2017-12-21T01:12:13.178Z,21.8
2017-12-21T01:13:21.264Z,21.8
2017-12-21T01:14:29.351Z,21.8
2017-12-21T01:15:37.440Z,21.8
2017-12-21T01:16:45.523Z,21.8
2017-12-21T01:17:53.622Z,21.8
2017-12-21T01:19:01.717Z,21.8
2017-12-21T01:20:09.791Z,21.8
2017-12-21T01:21:17.874Z,21.8
2017-12-21T01:22:25.972Z,21.8
2017-12-21T01:23:34.056Z,21.8
2017-12-21T01:24:42.141Z,21.8
2017-12-21T01:25:50.227Z,21.8
2017-12-21T01:26:58.346Z,21.7
2017-12-21T01:28:06.400Z,21.8
2017-12-21T01:29:14.485Z,21.7
2017-12-21T01:30:22.570Z,21.7
2017-12-21T01:31:30.657Z,21.7
2017-12-21T01:32:38.745Z,21.7
2017-12-21T01:33:46.838Z,21.6
2017-12-21T01:34:54.923Z,21.7
2017-12-21T01:36:03.009Z,21.6
2017-12-21T01:37:11.102Z,21.7
2017-12-21T01:38:19.187Z,21.7
2017-12-21T01:39:27.272Z,21.6
2017-12-21T01:40:35.358Z,21.6
2017-12-21T01:41:43.444Z,21.6
2017-12-21T01:42:51.529Z,21.7
2017-12-21T01:43:59.620Z,21.8
2017-12-21T01:45:07.708Z,21.6
2017-12-21T01:46:15.791Z,21.6
2017-12-21T01:47:23.878Z,21.6
2017-12-21T01:48:31.965Z,21.7
2017-12-21T01:49:40.051Z,21.5
2017-12-21T01:50:48.155Z,21.6
2017-12-21T01:51:56.260Z,21.6
2017-12-21T01:53:04.330Z,21.6
2017-12-21T01:54:12.416Z,21.6
2017-12-21T01:55:20.501Z,21.6
2017-12-21T01:56:28.588Z,21.6
2017-12-21T01:57:36.677Z,21.5
2017-12-21T01:58:44.764Z,21.6
2017-12-21T01:59:52.846Z,21.5
2017-12-21T02:01:00.938Z,21.5
2017-12-21T02:02:09.020Z,21.6
2017-12-21T02:03:17.104Z,21.6
2017-12-21T02:04:25.188Z,21.5
2017-12-21T02:05:33.273Z,21.5
2017-12-21T02:06:41.360Z,21.4
2017-12-21T02:07:49.447Z,21.5
2017-12-21T02:08:57.530Z,21.4
2017-12-21T02:10:05.650Z,21.4
2017-12-21T02:11:13.707Z,21.4
2017-12-21T02:12:21.792Z,21.4
2017-12-21T02:13:29.879Z,21.4
2017-12-21T02:14:37.963Z,21.4
2017-12-21T02:15:46.047Z,21.4
2017-12-21T02:16:54.133Z,21.3
2017-12-21T02:18:02.221Z,21.3
2017-12-21T02:19:10.305Z,21.3
2017-12-21T02:20:18.401Z,21.3
2017-12-21T02:21:26.478Z,21.3
2017-12-21T02:22:34.560Z,21.3
2017-12-21T02:23:42.656Z,21.3
2017-12-21T02:24:50.742Z,21.2
2017-12-21T02:25:58.825Z,21.3
2017-12-21T02:27:06.930Z,21.2
2017-12-21T02:28:15.006Z,21.2
2017-12-21T02:29:23.093Z,21.2
2017-12-21T02:30:31.248Z,21.3
2017-12-21T02:31:39.342Z,21.1
2017-12-21T02:32:47.509Z,21.2
2017-12-21T02:33:55.500Z,21.1
2017-12-21T02:35:03.586Z,21.2
2017-12-21T02:36:11.673Z,21.1
2017-12-21T02:37:19.759Z,21.1
2017-12-21T02:38:27.844Z,21.1
2017-12-21T02:39:35.932Z,21.1
2017-12-21T02:40:44.017Z,21.1
2017-12-21T02:41:52.103Z,21.0
2017-12-21T02:43:00.185Z,21.0
2017-12-21T02:44:08.288Z,21.1
2017-12-21T02:45:16.367Z,21.0
2017-12-21T02:46:24.454Z,21.1
2017-12-21T02:47:32.538Z,21.1
2017-12-21T02:48:40.624Z,21.0
2017-12-21T02:49:48.710Z,21.1
2017-12-21T02:50:56.805Z,21.0
2017-12-21T02:52:04.879Z,21.0
2017-12-21T02:53:12.968Z,21.0
2017-12-21T02:54:21.049Z,20.9
2017-12-21T02:55:29.189Z,20.9
2017-12-21T02:56:37.219Z,20.9
2017-12-21T02:57:45.308Z,20.9
2017-12-21T02:58:53.392Z,20.9
2017-12-21T03:00:01.479Z,20.9
2017-12-21T03:01:09.572Z,20.9
2017-12-21T03:02:17.659Z,20.9
2017-12-21T03:03:25.742Z,20.9
2017-12-21T03:04:33.834Z,20.8
2017-12-21T03:05:41.913Z,20.8
2017-12-21T03:06:49.999Z,20.8
2017-12-21T03:07:58.185Z,20.8
2017-12-21T03:09:06.169Z,20.8
2017-12-21T03:10:14.267Z,20.9
2017-12-21T03:11:22.339Z,20.8
2017-12-21T03:12:30.425Z,20.7
2017-12-21T03:13:38.508Z,20.8
2017-12-21T03:14:46.594Z,20.8
2017-12-21T03:15:54.693Z,20.7
2017-12-21T03:17:02.778Z,20.7
2017-12-21T03:18:10.862Z,20.7
2017-12-21T03:19:18.952Z,20.7
2017-12-21T03:20:27.033Z,20.6
2017-12-21T03:21:35.127Z,20.7
2017-12-21T03:22:43.205Z,20.7
2017-12-21T03:23:51.290Z,20.6
2017-12-21T03:24:59.375Z,20.6
2017-12-21T03:26:07.456Z,20.5
2017-12-21T03:27:15.545Z,20.5
2017-12-21T03:28:23.627Z,20.5
2017-12-21T03:29:31.714Z,20.5
2017-12-21T03:30:39.800Z,20.5
2017-12-21T03:31:47.882Z,20.5
2017-12-21T03:32:55.970Z,20.5
2017-12-21T03:34:04.052Z,20.5
2017-12-21T03:35:12.138Z,20.4
2017-12-21T03:36:20.224Z,20.5
2017-12-21T03:37:28.315Z,20.5
2017-12-21T03:38:36.391Z,20.5
2017-12-21T03:39:44.477Z,20.5
2017-12-21T03:40:52.561Z,20.5
2017-12-21T03:42:00.647Z,20.4
2017-12-21T03:43:08.742Z,20.3
2017-12-21T03:44:16.814Z,20.5
2017-12-21T03:45:24.899Z,20.3
2017-12-21T03:46:32.985Z,20.4
2017-12-21T03:47:41.453Z,20.4
2017-12-21T03:48:49.546Z,20.4
2017-12-21T03:49:57.893Z,20.4
2017-12-21T03:51:05.936Z,20.3
2017-12-21T03:52:14.020Z,20.2
2017-12-21T03:53:22.115Z,20.3
2017-12-21T03:54:30.190Z,20.2
2017-12-21T03:55:38.275Z,20.2
2017-12-21T03:56:46.359Z,20.2
2017-12-21T03:57:54.443Z,20.2
2017-12-21T03:59:02.527Z,20.1
2017-12-21T04:00:10.617Z,20.2
2017-12-21T04:01:18.705Z,20.1
2017-12-21T04:02:26.787Z,20.2
2017-12-21T04:03:34.875Z,20.1
2017-12-21T04:04:42.960Z,20.1
2017-12-21T04:05:51.041Z,20.1
2017-12-21T04:06:59.126Z,20.2
2017-12-21T04:08:07.220Z,20.1
2017-12-21T04:09:15.294Z,20.1
2017-12-21T04:10:23.380Z,20.1
2017-12-21T04:11:31.465Z,20.1
2017-12-21T04:12:39.549Z,20.0
2017-12-21T04:13:47.637Z,20.1
2017-12-21T04:14:55.728Z,20.0
2017-12-21T04:16:03.812Z,20.0
2017-12-21T04:17:11.896Z,20.0
2017-12-21T04:18:19.980Z,19.9
2017-12-21T04:19:28.065Z,20.0
2017-12-21T04:20:36.211Z,19.9
2017-12-21T04:21:44.230Z,19.9
2017-12-21T04:22:52.321Z,19.9
2017-12-21T04:24:00.405Z,19.8
2017-12-21T04:25:08.488Z,19.9
2017-12-21T04:26:16.572Z,19.9
2017-12-21T04:27:24.669Z,19.9
2017-12-21T04:28:32.741Z,19.9
2017-12-21T04:29:40.829Z,19.8
2017-12-21T04:30:48.910Z,19.8
2017-12-21T04:31:57.003Z,19.8
2017-12-21T04:33:05.081Z,19.8
2017-12-21T04:34:13.165Z,19.7
2017-12-21T04:35:21.247Z,19.7
2017-12-21T04:36:29.339Z,19.7
2017-12-21T04:37:37.419Z,19.7
2017-12-21T04:38:45.500Z,19.7
2017-12-21T04:39:53.584Z,19.7
2017-12-21T04:41:01.667Z,19.7
2017-12-21T04:42:09.755Z,19.6
2017-12-21T04:43:17.845Z,19.6
2017-12-21T04:44:25.926Z,19.7
2017-12-21T04:45:34.007Z,19.7
2017-12-21T04:46:42.087Z,19.7
2017-12-21T04:47:50.173Z,19.7
2017-12-21T04:48:58.255Z,19.6
2017-12-21T04:50:06.346Z,19.6
2017-12-21T04:51:14.426Z,19.6
2017-12-21T04:52:22.512Z,19.6
2017-12-21T04:53:30.596Z,19.5
2017-12-21T04:54:38.679Z,19.5
2017-12-21T04:55:46.762Z,19.5
2017-12-21T04:56:54.847Z,19.5
2017-12-21T04:58:02.931Z,19.5
2017-12-21T04:59:11.023Z,19.6
2017-12-21T05:00:19.101Z,19.5
2017-12-21T05:01:27.183Z,19.5
2017-12-21T05:02:35.275Z,19.4
2017-12-21T05:03:43.358Z,19.5
2017-12-21T05:04:51.447Z,19.4
2017-12-21T05:05:59.532Z,19.4
2017-12-21T05:07:07.694Z,19.4
2017-12-21T05:08:15.702Z,19.4
2017-12-21T05:09:23.789Z,19.4
2017-12-21T05:10:31.874Z,19.3
2017-12-21T05:11:39.957Z,19.4
2017-12-21T05:12:48.043Z,19.4
2017-12-21T05:13:56.136Z,19.3
2017-12-21T05:15:04.222Z,19.3
2017-12-21T05:16:12.375Z,19.4
2017-12-21T05:17:20.386Z,19.2
2017-12-21T05:18:28.472Z,19.3
2017-12-21T05:19:36.556Z,19.3
2017-12-21T05:20:44.640Z,19.2
2017-12-21T05:21:52.723Z,19.2
2017-12-21T05:23:00.808Z,19.2
2017-12-21T05:24:08.890Z,19.2
2017-12-21T05:25:17.023Z,19.1
2017-12-21T05:26:25.107Z,19.1
2017-12-21T05:27:33.192Z,19.2
2017-12-21T05:28:41.280Z,19.1
2017-12-21T05:29:49.361Z,19.1
2017-12-21T05:30:57.441Z,19.2
2017-12-21T05:32:05.527Z,19.1
2017-12-21T05:33:13.611Z,19.1
2017-12-21T05:34:21.694Z,19.1
2017-12-21T05:35:29.778Z,19.1
2017-12-21T05:36:37.860Z,18.9
2017-12-21T05:37:45.943Z,19.0
2017-12-21T05:38:54.028Z,19.0
2017-12-21T05:40:02.118Z,19.0
2017-12-21T05:41:10.196Z,19.0
2017-12-21T05:42:18.281Z,18.9
2017-12-21T05:43:26.364Z,18.9
2017-12-21T05:44:34.455Z,19.0
2017-12-21T05:45:42.542Z,18.9
2017-12-21T05:46:50.622Z,18.9
2017-12-21T05:47:58.710Z,18.9
2017-12-21T05:49:06.790Z,18.9
2017-12-21T05:50:14.876Z,18.8
2017-12-21T05:51:22.957Z,18.8
2017-12-21T05:52:31.039Z,18.9
2017-12-21T05:53:39.191Z,18.8
2017-12-21T05:54:47.205Z,18.7
2017-12-21T05:55:55.289Z,18.8
2017-12-21T05:57:03.373Z,18.8
2017-12-21T05:58:11.586Z,18.7
2017-12-21T05:59:19.540Z,18.8
2017-12-21T06:00:27.626Z,18.7
2017-12-21T06:01:35.709Z,18.8
2017-12-21T06:02:43.862Z,18.8
2017-12-21T06:03:51.884Z,18.8
2017-12-21T06:04:59.962Z,18.7
2017-12-21T06:06:08.064Z,18.7
2017-12-21T06:07:16.128Z,18.7
2017-12-21T06:08:24.214Z,18.8
2017-12-21T06:09:32.296Z,18.7
2017-12-21T06:10:40.379Z,18.7
2017-12-21T06:11:48.461Z,18.8
2017-12-21T06:12:56.555Z,18.8
2017-12-21T06:14:04.638Z,18.7
2017-12-21T06:15:12.726Z,18.7
2017-12-21T06:16:20.809Z,18.7
2017-12-21T06:17:28.892Z,18.8
2017-12-21T06:18:36.973Z,18.8
2017-12-21T06:19:45.058Z,18.8
2017-12-21T06:20:53.193Z,18.8
2017-12-21T06:22:01.224Z,18.8
2017-12-21T06:23:09.309Z,18.8
2017-12-21T06:24:17.399Z,18.7
2017-12-21T06:25:25.476Z,18.8
2017-12-21T06:26:33.562Z,18.8
2017-12-21T06:27:41.645Z,18.8
2017-12-21T06:28:49.727Z,18.8
2017-12-21T06:29:57.814Z,18.8
2017-12-21T06:31:05.905Z,18.8
2017-12-21T06:32:14.005Z,18.8
2017-12-21T06:33:22.081Z,18.8
2017-12-21T06:34:30.163Z,18.7
2017-12-21T06:35:38.248Z,18.8
2017-12-21T06:36:46.331Z,18.9
2017-12-21T06:37:54.412Z,18.9
2017-12-21T06:39:02.498Z,18.8
2017-12-21T06:40:10.680Z,18.8
2017-12-21T06:41:18.678Z,18.8
2017-12-21T06:42:26.761Z,18.8
2017-12-21T06:43:34.857Z,18.9
2017-12-21T06:44:42.937Z,18.8
2017-12-21T06:45:51.026Z,18.9
2017-12-21T06:46:59.108Z,19.0
2017-12-21T06:48:07.191Z,18.9
2017-12-21T06:49:15.276Z,19.0
2017-12-21T06:50:23.359Z,18.9
2017-12-21T06:51:31.483Z,19.0
2017-12-21T06:52:39.563Z,19.0
2017-12-21T06:53:47.647Z,18.9
2017-12-21T06:54:55.731Z,19.0
2017-12-21T06:56:03.814Z,19.0
2017-12-21T06:57:11.915Z,19.1
2017-12-21T06:58:19.991Z,19.1
2017-12-21T06:59:28.075Z,19.1
2017-12-21T07:00:36.156Z,19.1
2017-12-21T07:01:44.240Z,19.1
2017-12-21T07:02:52.323Z,19.1
2017-12-21T07:04:00.410Z,19.2
2017-12-21T07:05:08.492Z,19.2
2017-12-21T07:06:16.578Z,19.3
2017-12-21T07:07:24.670Z,19.3
2017-12-21T07:08:32.754Z,19.3
2017-12-21T07:09:40.850Z,19.3
2017-12-21T07:10:48.932Z,19.3
2017-12-21T07:11:57.027Z,19.4
2017-12-21T07:13:05.101Z,19.4
2017-12-21T07:14:13.182Z,19.5
2017-12-21T07:15:21.266Z,19.4
2017-12-21T07:16:29.352Z,19.5
2017-12-21T07:17:37.434Z,19.5
2017-12-21T07:18:45.517Z,19.6
2017-12-21T07:19:53.618Z,19.5
2017-12-21T07:21:01.695Z,19.5
2017-12-21T07:22:09.775Z,19.6
2017-12-21T07:23:17.861Z,19.7
2017-12-21T07:24:25.945Z,19.7
2017-12-21T07:25:34.030Z,19.6
2017-12-21T07:26:42.111Z,19.6
2017-12-21T07:27:50.203Z,19.7
2017-12-21T07:28:58.301Z,19.7
2017-12-21T07:30:06.391Z,19.8
2017-12-21T07:31:14.474Z,19.7
2017-12-21T07:32:22.559Z,19.7
2017-12-21T07:33:30.641Z,19.7
2017-12-21T07:34:38.723Z,19.8
2017-12-21T07:35:46.811Z,19.9
2017-12-21T07:36:54.907Z,19.9
2017-12-21T07:38:02.989Z,20.0
2017-12-21T07:39:11.072Z,20.0
2017-12-21T07:40:19.162Z,20.0
2017-12-21T07:41:27.244Z,20.0
2017-12-21T07:42:35.336Z,20.0
2017-12-21T07:43:43.430Z,20.1
2017-12-21T07:44:51.500Z,20.1
2017-12-21T07:45:59.583Z,20.1
2017-12-21T07:47:07.728Z,20.2
2017-12-21T07:48:15.753Z,20.2
2017-12-21T07:49:23.838Z,20.2
2017-12-21T07:50:31.923Z,20.2
2017-12-21T07:51:40.006Z,20.2
2017-12-21T07:52:48.089Z,20.2
2017-12-21T07:53:56.178Z,20.3
2017-12-21T07:55:04.258Z,20.4
2017-12-21T07:56:12.343Z,20.4
2017-12-21T07:57:20.427Z,20.3
2017-12-21T07:58:28.511Z,20.5
2017-12-21T07:59:36.629Z,20.3
2017-12-21T08:00:44.982Z,20.4
2017-12-21T08:01:53.063Z,20.5
2017-12-21T08:03:01.146Z,20.4
2017-12-21T08:04:09.232Z,20.5
2017-12-21T08:05:17.334Z,20.6
2017-12-21T08:06:25.401Z,20.5
2017-12-21T08:07:33.485Z,20.6
2017-12-21T08:08:41.572Z,20.6
2017-12-21T08:09:49.655Z,20.6
2017-12-21T08:10:57.740Z,20.7
2017-12-21T08:12:05.829Z,20.7
2017-12-21T08:13:13.907Z,20.6
2017-12-21T08:14:21.991Z,20.8
2017-12-21T08:15:30.075Z,20.8
2017-12-21T08:16:38.161Z,20.7
2017-12-21T08:17:46.256Z,20.8
2017-12-21T08:18:54.346Z,20.8
2017-12-21T08:20:02.423Z,20.8
2017-12-21T08:21:10.508Z,20.9
2017-12-21T08:22:18.594Z,20.9
2017-12-21T08:23:26.678Z,20.9
2017-12-21T08:24:34.763Z,20.9
2017-12-21T08:25:42.939Z,20.9
2017-12-21T08:26:50.933Z,21.0
2017-12-21T08:27:59.026Z,20.9
2017-12-21T08:29:07.111Z,20.9
2017-12-21T08:30:15.191Z,20.9
2017-12-21T08:31:23.278Z,21.0
2017-12-21T08:32:31.366Z,21.0
2017-12-21T08:33:39.449Z,21.0
2017-12-21T08:34:47.533Z,21.0
2017-12-21T08:35:55.620Z,21.1
2017-12-21T08:37:03.706Z,21.0
2017-12-21T08:38:11.793Z,21.1
2017-12-21T08:39:19.874Z,21.1
2017-12-21T08:40:27.957Z,21.1
2017-12-21T08:41:36.054Z,21.0
2017-12-21T08:42:44.139Z,21.1
2017-12-21T08:43:52.223Z,21.1
2017-12-21T08:45:00.310Z,21.2
2017-12-21T08:46:08.393Z,21.1
2017-12-21T08:47:16.479Z,21.1
2017-12-21T08:48:24.565Z,21.1
2017-12-21T08:49:32.649Z,21.2
2017-12-21T08:50:40.733Z,21.3
2017-12-21T08:51:48.821Z,21.3
2017-12-21T08:52:56.910Z,21.3
2017-12-21T08:54:04.989Z,21.3
2017-12-21T08:55:13.076Z,21.3
2017-12-21T08:56:21.159Z,21.3
2017-12-21T08:57:29.260Z,21.3
2017-12-21T08:58:37.343Z,21.4
2017-12-21T08:59:45.428Z,21.4
2017-12-21T09:00:53.514Z,21.3
2017-12-21T09:02:01.765Z,21.4
2017-12-21T09:03:09.852Z,21.3
2017-12-21T09:04:17.938Z,21.4
2017-12-21T09:05:26.022Z,21.4
2017-12-21T09:06:34.104Z,21.3
2017-12-21T09:07:42.191Z,21.4
2017-12-21T09:08:50.277Z,21.4
2017-12-21T09:09:58.362Z,21.4
2017-12-21T09:11:06.448Z,21.4
2017-12-21T09:12:14.551Z,21.3
2017-12-21T09:13:22.642Z,21.4
2017-12-21T09:14:30.723Z,21.4
2017-12-21T09:15:38.807Z,21.4
2017-12-21T09:16:46.892Z,21.4
2017-12-21T09:17:54.983Z,21.5
2017-12-21T09:19:03.063Z,21.4
2017-12-21T09:20:11.149Z,21.4
2017-12-21T09:21:19.235Z,21.5
2017-12-21T09:22:27.317Z,21.5
2017-12-21T09:23:35.404Z,21.5
2017-12-21T09:24:43.491Z,21.5
2017-12-21T09:25:51.575Z,21.6
2017-12-21T09:26:59.662Z,21.5
2017-12-21T09:28:07.746Z,21.5
2017-12-21T09:29:15.836Z,21.5
2017-12-21T09:30:23.917Z,21.5
2017-12-21T09:31:32.001Z,21.6
2017-12-21T09:32:40.088Z,21.5
2017-12-21T09:33:48.174Z,21.5
2017-12-21T09:34:56.259Z,21.6
2017-12-21T09:36:04.348Z,21.6
2017-12-21T09:37:12.430Z,21.6
2017-12-21T09:38:20.521Z,21.5
2017-12-21T09:39:28.598Z,21.5
2017-12-21T09:40:36.684Z,21.6
2017-12-21T09:41:44.772Z,21.5
2017-12-21T09:42:52.865Z,21.6
2017-12-21T09:44:00.965Z,21.6
2017-12-21T09:45:09.026Z,21.7
2017-12-21T09:46:17.118Z,21.6
2017-12-21T09:47:25.197Z,21.6
2017-12-21T09:48:33.283Z,21.6
2017-12-21T09:49:41.368Z,21.6
2017-12-21T09:50:49.859Z,21.6
2017-12-21T09:51:57.944Z,21.6
2017-12-21T09:53:06.030Z,21.6
2017-12-21T09:54:14.114Z,21.6
2017-12-21T09:55:22.202Z,21.5
2017-12-21T09:56:30.284Z,21.6
2017-12-21T09:57:38.370Z,21.6
2017-12-21T09:58:46.454Z,21.6
2017-12-21T09:59:54.543Z,21.6
2017-12-21T10:01:02.628Z,21.6
2017-12-21T10:02:10.718Z,21.5
2017-12-21T10:03:18.799Z,21.6
2017-12-21T10:04:26.894Z,21.6
2017-12-21T10:05:34.978Z,21.6
2017-12-21T10:06:43.064Z,21.6
2017-12-21T10:07:51.170Z,21.6
2017-12-21T10:08:59.237Z,21.6
2017-12-21T10:10:07.325Z,21.6
2017-12-21T10:11:15.412Z,21.5
2017-12-21T10:12:23.498Z,21.6
2017-12-21T10:13:31.587Z,21.6
2017-12-21T10:14:39.671Z,21.6
2017-12-21T10:15:47.850Z,21.6
2017-12-21T10:16:55.860Z,21.6
2017-12-21T10:18:03.948Z,21.6
2017-12-21T10:19:12.038Z,21.6
2017-12-21T10:20:20.117Z,21.5
2017-12-21T10:21:28.206Z,21.6
2017-12-21T10:22:36.292Z,21.6
2017-12-21T10:23:44.374Z,21.6
2017-12-21T10:24:52.459Z,21.6
2017-12-21T10:26:00.545Z,21.5
2017-12-21T10:27:08.631Z,21.6
2017-12-21T10:28:16.725Z,21.6
2017-12-21T10:29:24.814Z,21.6
2017-12-21T10:30:32.899Z,21.5
2017-12-21T10:31:40.997Z,21.5
2017-12-21T10:32:49.079Z,21.5
2017-12-21T10:33:57.166Z,21.5
2017-12-21T10:35:05.255Z,21.5
2017-12-21T10:36:13.342Z,21.5
2017-12-21T10:37:21.432Z,21.5
2017-12-21T10:38:29.513Z,21.5
2017-12-21T10:39:37.605Z,21.6
2017-12-21T10:40:45.683Z,21.5
2017-12-21T10:41:53.768Z,21.6
2017-12-21T10:43:01.853Z,21.6
2017-12-21T10:44:09.947Z,21.5
2017-12-21T10:45:18.033Z,21.4
2017-12-21T10:46:26.121Z,21.5
2017-12-21T10:47:34.207Z,21.4
2017-12-21T10:48:42.290Z,21.4
2017-12-21T10:49:50.383Z,21.4
2017-12-21T10:50:58.458Z,21.4
2017-12-21T10:52:06.543Z,21.4
2017-12-21T10:53:14.629Z,21.4
2017-12-21T10:54:22.735Z,21.4
2017-12-21T10:55:30.802Z,21.4
2017-12-21T10:56:38.885Z,21.3
2017-12-21T10:57:46.971Z,21.5
2017-12-21T10:58:55.057Z,21.4
2017-12-21T11:00:03.142Z,21.4
2017-12-21T11:01:11.240Z,21.4
2017-12-21T11:02:19.354Z,21.4
2017-12-21T11:03:27.413Z,21.4
2017-12-21T11:04:35.500Z,21.4
2017-12-21T11:05:43.583Z,21.4
2017-12-21T11:06:51.676Z,21.3
2017-12-21T11:07:59.772Z,21.3
2017-12-21T11:09:07.853Z,21.4
2017-12-21T11:10:15.932Z,21.4
2017-12-21T11:11:24.019Z,21.4
2017-12-21T11:12:32.104Z,21.4
2017-12-21T11:13:40.191Z,21.4
2017-12-21T11:14:48.281Z,21.3
2017-12-21T11:15:56.359Z,21.3
2017-12-21T11:17:04.446Z,21.3
2017-12-21T11:18:12.533Z,21.3
2017-12-21T11:19:20.620Z,21.3
2017-12-21T11:20:28.706Z,21.3
2017-12-21T11:21:36.795Z,21.3
2017-12-21T11:22:45.012Z,21.3
2017-12-21T11:23:52.958Z,21.2
2017-12-21T11:25:01.039Z,21.2
2017-12-21T11:26:09.133Z,21.2
2017-12-21T11:27:17.223Z,21.3
2017-12-21T11:28:25.307Z,21.3
2017-12-21T11:29:33.391Z,21.2
2017-12-21T11:30:41.478Z,21.2
2017-12-21T11:31:49.579Z,21.2
2017-12-21T11:32:57.671Z,21.2
2017-12-21T11:34:05.756Z,21.2
2017-12-21T11:35:13.866Z,21.2
2017-12-21T11:36:21.926Z,21.2
2017-12-21T11:37:30.010Z,21.1
2017-12-21T11:38:38.096Z,21.1
2017-12-21T11:39:46.182Z,21.1
2017-12-21T11:40:54.283Z,21.2
2017-12-21T11:42:02.353Z,21.2
2017-12-21T11:43:10.443Z,21.2
2017-12-21T11:44:18.543Z,21.1
2017-12-21T11:45:26.652Z,21.1
2017-12-21T11:46:34.994Z,21.0
2017-12-21T11:47:42.841Z,21.1
2017-12-21T11:48:50.930Z,21.1
2017-12-21T11:49:59.251Z,21.0
2017-12-21T11:51:07.332Z,21.1
2017-12-21T11:52:15.419Z,21.1
2017-12-21T11:53:23.504Z,21.1
2017-12-21T11:54:31.588Z,21.1
2017-12-21T11:55:39.675Z,21.1
2017-12-21T11:56:47.760Z,21.0
2017-12-21T11:57:55.844Z,21.0
2017-12-21T11:59:03.930Z,21.1
2017-12-21T12:00:12.014Z,21.0
2017-12-21T12:01:20.100Z,20.9
2017-12-21T12:02:28.184Z,21.0
2017-12-21T12:03:36.270Z,21.0
2017-12-21T12:04:44.357Z,21.0
2017-12-21T12:05:52.486Z,20.9
2017-12-21T12:07:00.568Z,20.9
2017-12-21T12:08:08.657Z,21.1
2017-12-21T12:09:16.738Z,20.9
2017-12-21T12:10:24.882Z,21.0
2017-12-21T12:11:32.913Z,20.9
2017-12-21T12:12:40.996Z,20.9
2017-12-21T12:13:49.083Z,20.9
2017-12-21T12:14:57.167Z,20.9
2017-12-21T12:16:05.257Z,20.9
2017-12-21T12:17:13.337Z,20.9
2017-12-21T12:18:21.426Z,20.9
2017-12-21T12:19:29.507Z,20.9
2017-12-21T12:20:37.600Z,20.9
2017-12-21T12:21:45.696Z,20.9
2017-12-21T12:22:53.769Z,20.7
2017-12-21T12:24:01.853Z,20.8
2017-12-21T12:25:09.950Z,20.8
2017-12-21T12:26:18.034Z,20.8
2017-12-21T12:27:26.149Z,20.8
2017-12-21T12:28:34.205Z,20.8
2017-12-21T12:29:42.291Z,20.8
2017-12-21T12:30:50.378Z,20.8
2017-12-21T12:31:58.465Z,20.9
2017-12-21T12:33:06.547Z,20.9
2017-12-21T12:34:14.634Z,20.8
2017-12-21T12:35:22.717Z,20.8
2017-12-21T12:36:30.803Z,20.7
2017-12-21T12:37:38.887Z,20.7
2017-12-21T12:38:46.972Z,20.7
2017-12-21T12:39:55.057Z,20.7
2017-12-21T12:41:03.143Z,20.7
2017-12-21T12:42:11.255Z,20.7
2017-12-21T12:43:19.313Z,20.6
2017-12-21T12:44:27.406Z,20.7
2017-12-21T12:45:35.488Z,20.7
2017-12-21T12:46:43.567Z,20.7
2017-12-21T12:47:51.669Z,20.7
2017-12-21T12:48:59.739Z,20.6
2017-12-21T12:50:07.825Z,20.7
2017-12-21T12:51:15.916Z,20.6
2017-12-21T12:52:23.994Z,20.6
2017-12-21T12:53:32.080Z,20.6
2017-12-21T12:54:40.165Z,20.6
2017-12-21T12:55:48.248Z,20.6
2017-12-21T12:56:56.340Z,20.5
2017-12-21T12:58:04.427Z,20.5
2017-12-21T12:59:12.502Z,20.5
2017-12-21T13:00:20.588Z,20.6
2017-12-21T13:01:28.674Z,20.5
2017-12-21T13:02:36.777Z,20.5
2017-12-21T13:03:44.843Z,20.4
2017-12-21T13:04:52.984Z,20.6
2017-12-21T13:06:01.036Z,20.5
2017-12-21T13:07:09.121Z,20.4
2017-12-21T13:08:17.289Z,20.5
2017-12-21T13:09:25.290Z,20.4
2017-12-21T13:10:33.376Z,20.5
2017-12-21T13:11:41.466Z,20.4
2017-12-21T13:12:49.569Z,20.5
2017-12-21T13:13:57.636Z,20.4
2017-12-21T13:15:05.721Z,20.3
2017-12-21T13:16:13.806Z,20.5
2017-12-21T13:17:21.889Z,20.4
2017-12-21T13:18:29.974Z,20.3
2017-12-21T13:19:38.083Z,20.3
2017-12-21T13:20:46.144Z,20.3
2017-12-21T13:21:54.230Z,20.4
2017-12-21T13:23:02.315Z,20.4
2017-12-21T13:24:10.398Z,20.3
2017-12-21T13:25:18.485Z,20.4
2017-12-21T13:26:26.571Z,20.4
2017-12-21T13:27:34.652Z,20.3
2017-12-21T13:28:42.739Z,20.3
2017-12-21T13:29:50.822Z,20.2
2017-12-21T13:30:58.908Z,20.2
2017-12-21T13:32:06.991Z,20.3
2017-12-21T13:33:15.075Z,20.3
2017-12-21T13:34:23.161Z,20.2
2017-12-21T13:35:31.244Z,20.2
2017-12-21T13:36:39.332Z,20.2
2017-12-21T13:37:47.417Z,20.3
2017-12-21T13:38:55.505Z,20.2
2017-12-21T13:40:03.587Z,20.2
2017-12-21T13:41:11.673Z,20.2
2017-12-21T13:42:19.763Z,20.1
2017-12-21T13:43:27.843Z,20.1
2017-12-21T13:44:35.926Z,20.1
2017-12-21T13:45:44.009Z,20.1
2017-12-21T13:46:52.094Z,20.1
2017-12-21T13:48:00.177Z,20.0
2017-12-21T13:49:08.263Z,20.0
2017-12-21T13:50:16.353Z,20.0
2017-12-21T13:51:24.432Z,20.1
2017-12-21T13:52:32.518Z,20.0
2017-12-21T13:53:40.600Z,20.1
2017-12-21T13:54:48.689Z,20.0
2017-12-21T13:55:56.768Z,20.0
2017-12-21T13:57:04.862Z,20.0
2017-12-21T13:58:12.937Z,20.0
2017-12-21T13:59:21.021Z,20.0
2017-12-21T14:00:29.126Z,20.0
2017-12-21T14:01:37.192Z,20.0
2017-12-21T14:02:45.275Z,20.0
2017-12-21T14:03:53.359Z,19.9
2017-12-21T14:05:02.114Z,19.9
2017-12-21T14:06:09.527Z,19.9
2017-12-21T14:07:17.608Z,19.9
2017-12-21T14:08:25.698Z,19.9
2017-12-21T14:09:33.852Z,19.8
2017-12-21T14:10:41.874Z,19.8
2017-12-21T14:11:49.961Z,19.9
2017-12-21T14:12:58.041Z,19.7
2017-12-21T14:14:06.124Z,19.8
2017-12-21T14:15:14.207Z,19.7
2017-12-21T14:16:22.293Z,19.8
2017-12-21T14:17:30.376Z,19.8
2017-12-21T14:18:38.461Z,19.7
2017-12-21T14:19:46.545Z,19.8
2017-12-21T14:20:54.632Z,19.8
2017-12-21T14:22:02.713Z,19.7
2017-12-21T14:23:10.796Z,19.7
2017-12-21T14:24:18.880Z,19.7
2017-12-21T14:25:26.967Z,19.7
2017-12-21T14:26:35.056Z,19.7
2017-12-21T14:27:43.134Z,19.7
2017-12-21T14:28:51.222Z,19.6
2017-12-21T14:29:59.303Z,19.6
2017-12-21T14:31:07.388Z,19.6
2017-12-21T14:32:15.471Z,19.6
2017-12-21T14:33:23.563Z,19.7
2017-12-21T14:34:31.654Z,19.6
2017-12-21T14:35:39.742Z,19.6
2017-12-21T14:36:47.821Z,19.6
2017-12-21T14:37:55.907Z,19.6
2017-12-21T14:39:03.988Z,19.6
2017-12-21T14:40:12.083Z,19.6
2017-12-21T14:41:20.164Z,19.6
2017-12-21T14:42:28.241Z,19.6
2017-12-21T14:43:36.331Z,19.6
2017-12-21T14:44:44.409Z,19.6
2017-12-21T14:45:52.830Z,19.6
2017-12-21T14:47:00.915Z,19.6
2017-12-21T14:48:08.999Z,19.6
2017-12-21T14:49:17.083Z,19.6
2017-12-21T14:50:25.164Z,19.4
2017-12-21T14:51:33.254Z,19.4
2017-12-21T14:52:41.333Z,19.5
2017-12-21T14:53:49.417Z,19.4
2017-12-21T14:54:57.500Z,19.5
2017-12-21T14:56:05.584Z,19.4
2017-12-21T14:57:13.678Z,19.4
2017-12-21T14:58:21.755Z,19.4
2017-12-21T14:59:29.836Z,19.4
2017-12-21T15:00:37.920Z,19.4
2017-12-21T15:01:46.003Z,19.4
2017-12-21T15:02:54.087Z,19.4
2017-12-21T15:04:02.171Z,19.3
2017-12-21T15:05:10.254Z,19.4
2017-12-21T15:06:18.343Z,19.3